Time;durP1;ratioP1;P1;durP2;ratioP2;P2;SDS_P1;SDS_P2;PMS_P1;PMS_P2;Temp;Humidity;BMP_temperature;BMP_pressure;BME280_temperature;BME280_humidity;BME280_pressure;Samples;Min_cycle;Max_cycle;Signal;HPM_P1;HPM_P2
2023/01/31 00:01:27;;;;;;;10.10;3.15;;;;;;;2.98;72.27;98189.59;4387273;32;20117;-83
2023/01/31 00:03:54;;;;;;;10.32;3.40;;;;;;;3.09;71.11;98181.41;4361365;32;20490;-83
2023/01/31 00:06:25;;;;;;;11.03;2.90;;;;;;;2.85;71.40;98188.28;4360703;32;20134;-83
2023/01/31 00:08:52;;;;;;;8.80;3.00;;;;;;;3.50;69.60;98151.31;4362938;32;20174;-83
2023/01/31 00:11:19;;;;;;;10.27;3.50;;;;;;;3.12;70.26;98137.91;4361533;32;20119;-83
2023/01/31 00:13:45;;;;;;;8.07;2.78;;;;;;;3.09;69.87;98142.34;4374764;32;20129;-82
2023/01/31 00:16:11;;;;;;;8.98;2.83;;;;;;;3.02;69.95;98159.09;4362477;32;20443;-82
2023/01/31 00:18:37;;;;;;;6.75;2.25;;;;;;;3.15;69.83;98160.38;4362134;32;20503;-83
2023/01/31 00:21:14;;;;;;;11.98;3.03;;;;;;;3.53;69.10;98158.16;4361355;32;20125;-81
2023/01/31 00:23:40;;;;;;;10.18;2.60;;;;;;;3.46;70.08;98191.41;4363515;32;20518;-81
2023/01/31 00:26:08;;;;;;;8.68;3.15;;;;;;;3.38;70.89;98170.00;4363122;32;20111;-83
2023/01/31 00:28:37;;;;;;;7.82;2.75;;;;;;;3.27;71.17;98161.72;4360804;32;20168;-82
2023/01/31 00:31:03;;;;;;;7.20;2.45;;;;;;;3.13;72.64;98176.06;4384332;32;20173;-83
2023/01/31 00:33:28;;;;;;;8.43;2.60;;;;;;;3.08;72.88;98138.91;4385889;32;20107;-82
2023/01/31 00:35:53;;;;;;;7.05;2.40;;;;;;;3.18;72.68;98162.88;4386117;32;20111;-82
2023/01/31 00:38:19;;;;;;;11.60;3.22;;;;;;;3.29;71.48;98152.94;4361650;32;20102;-83
2023/01/31 00:40:52;;;;;;;8.75;2.58;;;;;;;3.43;70.85;98113.38;4362303;32;20103;-81
2023/01/31 00:43:17;;;;;;;9.30;2.90;;;;;;;3.08;71.56;98125.06;4361999;32;20712;-82
2023/01/31 00:45:43;;;;;;;8.38;2.42;;;;;;;2.95;71.41;98102.09;4363360;32;20117;-83
2023/01/31 00:48:08;;;;;;;9.10;3.05;;;;;;;3.06;71.09;98158.09;4386545;32;20110;-84
2023/01/31 00:50:34;;;;;;;7.18;2.20;;;;;;;3.00;70.65;98151.34;4386545;32;20114;-83
2023/01/31 00:53:00;;;;;;;8.82;2.28;;;;;;;3.10;70.08;98136.25;4373763;32;20141;-83
2023/01/31 00:55:25;;;;;;;6.57;1.95;;;;;;;3.08;69.48;98146.72;4362368;32;20091;-83
2023/01/31 00:57:50;;;;;;;7.87;2.20;;;;;;;3.19;67.68;98143.75;4363004;32;20183;-83
2023/01/31 01:00:16;;;;;;;9.23;2.12;;;;;;;3.56;66.95;98128.56;4362546;32;20380;-85
2023/01/31 01:02:42;;;;;;;6.45;2.05;;;;;;;3.39;66.56;98137.00;4364947;32;20098;-84
2023/01/31 01:05:07;;;;;;;8.25;2.08;;;;;;;3.57;64.97;98143.28;4363342;32;20098;-83
2023/01/31 01:07:33;;;;;;;6.97;2.00;;;;;;;3.52;65.19;98139.09;4363579;32;20173;-84
2023/01/31 01:09:58;;;;;;;7.95;2.00;;;;;;;3.40;65.18;98149.09;4364717;32;20090;-82
2023/01/31 01:12:23;;;;;;;6.32;1.83;;;;;;;3.37;65.47;98139.63;4364726;32;20555;-82
2023/01/31 01:14:49;;;;;;;7.62;1.90;;;;;;;3.48;65.01;98131.47;4364690;32;20141;-83
2023/01/31 01:17:14;;;;;;;8.10;1.70;;;;;;;3.54;64.95;98121.66;4364658;32;20088;-83
2023/01/31 01:19:40;;;;;;;7.40;2.05;;;;;;;3.46;64.59;98141.09;4363914;32;20470;-82
2023/01/31 01:22:05;;;;;;;8.93;2.15;;;;;;;3.44;64.56;98122.03;4363246;32;20114;-83
2023/01/31 01:24:30;;;;;;;8.30;1.70;;;;;;;3.42;64.64;98139.47;4362304;32;20119;-85
2023/01/31 01:26:56;;;;;;;9.05;2.00;;;;;;;3.38;64.46;98159.59;4360986;32;20099;-85
2023/01/31 01:29:21;;;;;;;6.97;1.65;;;;;;;3.41;64.56;98156.84;4363220;32;20159;-85
2023/01/31 01:31:47;;;;;;;5.45;1.70;;;;;;;3.46;64.34;98174.94;4363664;32;20117;-85
2023/01/31 01:34:14;;;;;;;7.87;2.05;;;;;;;3.29;64.42;98170.31;4363768;32;20134;-84
2023/01/31 01:36:40;;;;;;;6.57;2.00;;;;;;;3.34;64.43;98177.06;4361891;32;20452;-85
2023/01/31 01:39:10;;;;;;;8.18;1.95;;;;;;;3.22;64.83;98205.25;4362612;32;20095;-85
2023/01/31 01:41:37;;;;;;;8.00;1.80;;;;;;;3.43;64.37;98203.66;4364662;32;20475;-85
2023/01/31 01:44:24;;;;;;;5.87;1.70;;;;;;;3.58;63.78;98218.75;4351082;32;20115;-84
2023/01/31 01:46:50;;;;;;;6.43;1.73;;;;;;;3.42;64.14;98197.63;4364479;32;20091;-85
2023/01/31 01:49:30;;;;;;;7.85;2.20;;;;;;;3.35;64.67;98201.34;4363322;32;20166;-86
2023/01/31 01:51:57;;;;;;;6.75;1.83;;;;;;;3.48;64.12;98191.34;4364403;32;20086;-85
2023/01/31 01:54:27;;;;;;;8.40;1.95;;;;;;;3.69;63.53;98214.00;4363296;32;20147;-85
2023/01/31 01:56:58;;;;;;;6.45;1.50;;;;;;;3.25;64.65;98219.03;4363402;32;20086;-84
2023/01/31 01:59:28;;;;;;;7.80;1.90;;;;;;;3.44;64.44;98224.44;4363230;32;20433;-84
2023/01/31 02:01:54;;;;;;;5.72;1.45;;;;;;;3.38;64.55;98208.19;4363407;32;20087;-85
2023/01/31 02:04:22;;;;;;;7.47;1.75;;;;;;;3.41;64.47;98224.53;4363237;32;20383;-85
2023/01/31 02:06:47;;;;;;;5.12;2.12;;;;;;;3.67;63.69;98234.06;4364362;32;20103;-84
2023/01/31 02:09:54;;;;;;;6.68;1.77;;;;;;;3.36;64.29;98221.25;4363134;32;20392;-84
2023/01/31 02:12:20;;;;;;;13.23;2.50;;;;;;;3.54;63.63;98231.03;4335157;33;20113;-84
2023/01/31 02:14:46;;;;;;;7.72;1.55;;;;;;;3.38;64.08;98237.69;4347165;33;20195;-84
2023/01/31 02:17:16;;;;;;;10.38;1.83;;;;;;;3.50;63.83;98241.63;4347256;33;20215;-84
2023/01/31 02:20:00;;;;;;;7.37;1.62;;;;;;;3.31;64.41;98246.59;4347266;33;20184;-85
2023/01/31 02:23:01;;;;;;;6.57;1.60;;;;;;;3.43;64.27;98248.78;4347173;33;20455;-85
2023/01/31 02:25:26;;;;;;;6.20;1.45;;;;;;;3.58;63.96;98228.34;4332486;33;20136;-85
2023/01/31 02:28:08;;;;;;;6.97;2.10;;;;;;;3.27;65.02;98235.44;4332330;33;20116;-86
2023/01/31 02:30:46;;;;;;;7.57;1.30;;;;;;;3.48;64.20;98269.47;4332491;33;20198;-85
2023/01/31 02:33:33;;;;;;;9.07;1.58;;;;;;;3.36;64.48;98255.09;4332496;33;20108;-84
2023/01/31 02:36:17;;;;;;;6.82;1.50;;;;;;;3.35;64.15;98258.59;4332277;33;20095;-84
2023/01/31 02:38:48;;;;;;;3.83;1.30;;;;;;;3.19;64.58;98262.59;4332502;33;20155;-84
2023/01/31 02:41:32;;;;;;;6.03;1.48;;;;;;;3.36;63.58;98278.53;4332161;33;20155;-84
2023/01/31 02:46:58;;;;;;;6.65;1.23;;;;;;;3.19;64.02;98276.50;4332254;33;20186;-84
2023/01/31 02:49:38;;;;;;;5.60;1.25;;;;;;;3.36;63.55;98273.31;4331938;33;20095;-85
2023/01/31 02:52:25;;;;;;;6.15;1.30;;;;;;;3.35;63.43;98282.88;4332175;33;20080;-86
2023/01/31 02:58:03;;;;;;;8.00;1.90;;;;;;;3.59;62.73;98275.12;4331825;33;20176;-85
2023/01/31 03:00:31;;;;;;;6.43;1.37;;;;;;;3.53;62.91;98322.22;4328918;32;20098;-84
2023/01/31 03:02:56;;;;;;;7.93;1.62;;;;;;;3.43;63.10;98290.44;4362735;32;20129;-86
2023/01/31 03:05:22;;;;;;;3.90;1.10;;;;;;;3.22;63.64;98306.78;4363508;32;20432;-86
2023/01/31 03:07:53;;;;;;;12.85;1.98;;;;;;;3.39;63.03;98299.25;4363684;32;20126;-86
2023/01/31 03:10:30;;;;;;;8.57;1.42;;;;;;;3.35;63.20;98287.25;4362640;32;20467;-87
2023/01/31 03:13:27;;;;;;;5.93;1.40;;;;;;;3.52;62.66;98312.72;4363612;32;20513;-86
2023/01/31 03:19:28;;;;;;;5.72;1.48;;;;;;;3.60;62.96;98309.87;4362628;32;20126;-85
2023/01/31 03:22:00;;;;;;;5.85;1.42;;;;;;;3.52;63.19;98326.59;4362559;32;20133;-85
2023/01/31 03:24:29;;;;;;;9.57;1.67;;;;;;;3.38;63.22;98314.94;4362371;32;20091;-85
2023/01/31 03:26:55;;;;;;;9.35;1.60;;;;;;;3.47;62.99;98325.03;4363352;32;20379;-86
2023/01/31 03:29:22;;;;;;;5.80;1.10;;;;;;;3.76;62.19;98333.63;4362215;32;20408;-85
2023/01/31 03:31:52;;;;;;;5.30;1.42;;;;;;;3.37;62.88;98336.66;4362259;32;20156;-87
2023/01/31 03:34:18;;;;;;;8.00;1.60;;;;;;;3.61;62.49;98309.81;4362085;32;20199;-87
2023/01/31 03:36:52;;;;;;;5.18;1.40;;;;;;;3.55;62.46;98346.47;4349921;32;20118;-85
2023/01/31 03:39:37;;;;;;;6.40;1.50;;;;;;;3.54;62.19;98327.38;4362055;32;20095;-84
2023/01/31 03:42:08;;;;;;;5.45;1.40;;;;;;;3.57;62.20;98328.19;4363416;32;20103;-85
2023/01/31 03:44:45;;;;;;;7.07;1.27;;;;;;;3.70;61.86;98338.13;4362119;32;20152;-85
2023/01/31 03:47:24;;;;;;;8.25;1.62;;;;;;;3.37;62.42;98353.13;4362083;32;20088;-85
2023/01/31 03:49:51;;;;;;;9.68;1.30;;;;;;;3.52;62.02;98355.25;4363196;32;20463;-85
2023/01/31 03:52:22;;;;;;;8.43;1.60;;;;;;;3.58;62.05;98351.59;4362059;32;20130;-85
2023/01/31 03:54:52;;;;;;;5.85;1.40;;;;;;;3.68;61.56;98346.91;4363080;32;20118;-85
2023/01/31 03:57:23;;;;;;;10.13;1.52;;;;;;;3.41;62.48;98365.16;4361720;32;20170;-85
2023/01/31 03:59:54;;;;;;;4.72;1.20;;;;;;;3.41;62.71;98364.31;4363056;32;20099;-85
2023/01/31 04:02:22;;;;;;;7.97;1.48;;;;;;;3.63;62.20;98378.34;4352028;32;20458;-85
2023/01/31 04:04:53;;;;;;;8.05;1.75;;;;;;;3.46;62.58;98383.25;4364972;32;20094;-84
2023/01/31 04:07:19;;;;;;;5.85;1.30;;;;;;;3.52;62.38;98383.88;4364230;32;20083;-85
2023/01/31 04:09:44;;;;;;;5.53;1.40;;;;;;;3.46;62.42;98386.69;4363936;32;20138;-85
2023/01/31 04:12:12;;;;;;;5.32;1.27;;;;;;;3.48;62.25;98377.06;4365108;32;20139;-83
2023/01/31 04:14:38;;;;;;;;;;;;;;;3.37;62.87;98396.56;4364275;32;20095;-84
2023/01/31 04:17:03;;;;;;;5.82;1.40;;;;;;;3.32;63.43;98407.97;4363805;32;20006;-83
2023/01/31 04:19:28;;;;;;;5.35;1.52;;;;;;;3.02;64.46;98408.91;4365050;32;20087;-83
2023/01/31 04:21:54;;;;;;;6.57;1.58;;;;;;;3.21;64.53;98414.41;4364768;32;20137;-84
2023/01/31 04:24:19;;;;;;;6.60;1.50;;;;;;;3.08;65.02;98409.56;4364983;32;20158;-84
2023/01/31 04:26:45;;;;;;;5.30;1.20;;;;;;;3.60;64.06;98407.06;4364929;32;20210;-84
2023/01/31 04:29:10;;;;;;;6.22;1.60;;;;;;;3.59;64.27;98409.72;4364891;32;20092;-84
2023/01/31 04:31:36;;;;;;;5.35;1.33;;;;;;;3.37;65.24;98412.19;4363751;32;20368;-84
2023/01/31 04:34:01;;;;;;;6.25;1.60;;;;;;;3.28;65.84;98421.97;4364844;32;20075;-85
2023/01/31 04:36:26;;;;;;;6.43;1.50;;;;;;;3.31;66.14;98421.03;4364786;32;20392;-84
2023/01/31 04:38:52;;;;;;;6.60;1.70;;;;;;;3.27;66.74;98424.63;4363582;32;20119;-84
2023/01/31 04:41:18;;;;;;;7.62;1.30;;;;;;;3.10;67.68;98453.75;4364755;32;20106;-83
2023/01/31 04:43:43;;;;;;;6.50;1.40;;;;;;;3.09;67.90;98445.13;4363957;32;20219;-84
2023/01/31 04:46:09;;;;;;;5.97;1.35;;;;;;;3.02;68.09;98412.34;4365105;32;20106;-83
2023/01/31 04:48:34;;;;;;;4.40;1.25;;;;;;;2.85;69.09;98433.66;4364940;32;20150;-84
2023/01/31 04:51:00;;;;;;;5.07;1.40;;;;;;;3.14;68.42;98432.78;4351437;32;20337;-85
2023/01/31 04:53:25;;;;;;;7.03;1.70;;;;;;;3.01;69.04;98439.25;4365035;32;20106;-85
2023/01/31 04:55:54;;;;;;;4.82;1.25;;;;;;;3.03;69.73;98418.41;4364931;32;20079;-85
2023/01/31 04:58:19;;;;;;;6.87;1.60;;;;;;;2.68;71.11;98446.28;4365209;32;20122;-84
2023/01/31 05:00:45;;;;;;;5.65;1.17;;;;;;;2.89;70.88;98469.09;4363785;32;20095;-84
2023/01/31 05:03:11;;;;;;;7.65;1.45;;;;;;;3.13;69.94;98458.91;4365020;32;20161;-85
2023/01/31 05:05:36;;;;;;;6.25;1.48;;;;;;;3.18;71.17;98485.63;4364504;32;20406;-85
2023/01/31 05:08:02;;;;;;;3.87;1.10;;;;;;;2.87;73.41;98472.66;4363661;32;20122;-84
2023/01/31 05:10:27;;;;;;;4.95;1.27;;;;;;;2.94;74.17;98482.84;4363497;32;20171;-84
2023/01/31 05:12:52;;;;;;;3.78;1.30;;;;;;;2.83;75.79;98469.28;4363461;32;20401;-84
2023/01/31 05:15:19;;;;;;;6.20;1.55;;;;;;;3.04;75.60;98457.41;4364556;32;20113;-84
2023/01/31 05:17:50;;;;;;;5.68;1.45;;;;;;;3.02;75.79;98450.53;4364548;32;20533;-85
2023/01/31 05:20:15;;;;;;;4.47;1.40;;;;;;;2.89;76.06;98442.22;4363515;32;20107;-85
2023/01/31 05:22:41;;;;;;;5.65;1.40;;;;;;;2.94;75.00;98448.16;4364580;32;20119;-85
2023/01/31 05:25:07;;;;;;;8.60;2.05;;;;;;;3.35;73.57;98430.44;4364520;32;20084;-85
2023/01/31 05:27:32;;;;;;;6.22;1.95;;;;;;;2.99;74.21;98445.41;4364589;32;20137;-84
2023/01/31 05:29:59;;;;;;;6.07;1.50;;;;;;;2.75;74.58;98448.69;4364523;32;20103;-85
2023/01/31 05:32:24;;;;;;;7.30;1.40;;;;;;;2.82;74.20;98449.38;4364733;32;20083;-85
2023/01/31 05:34:50;;;;;;;6.43;1.50;;;;;;;3.00;73.13;98440.19;4363538;32;20083;-85
2023/01/31 05:37:15;;;;;;;6.80;1.80;;;;;;;2.72;73.61;98451.38;4364800;32;20114;-85
2023/01/31 05:39:41;;;;;;;4.95;1.40;;;;;;;2.75;73.31;98445.25;4364782;32;20117;-85
2023/01/31 05:42:06;;;;;;;6.05;1.35;;;;;;;2.85;72.36;98445.81;4364798;32;20114;-85
2023/01/31 05:44:32;;;;;;;7.12;1.70;;;;;;;2.90;72.00;98450.00;4364637;32;20125;-84
2023/01/31 05:46:57;;;;;;;7.10;1.30;;;;;;;3.01;71.24;98449.66;4363666;32;20372;-84
2023/01/31 05:49:23;;;;;;;6.60;1.45;;;;;;;3.07;70.31;98453.84;4363442;32;20150;-84
2023/01/31 05:51:48;;;;;;;5.20;1.35;;;;;;;2.82;71.12;98467.59;4364690;32;20368;-84
2023/01/31 05:54:13;;;;;;;7.25;1.37;;;;;;;2.99;69.70;98456.66;4364604;32;20149;-84
2023/01/31 05:56:39;;;;;;;5.50;1.50;;;;;;;2.80;70.35;98466.78;4364275;32;20119;-83
2023/01/31 05:59:04;;;;;;;5.45;1.10;;;;;;;2.90;69.44;98477.78;4364483;32;20137;-84
2023/01/31 06:01:30;;;;;;;7.30;1.45;;;;;;;2.95;69.36;98474.16;4364623;32;20121;-84
2023/01/31 06:03:56;;;;;;;8.07;1.42;;;;;;;2.85;69.33;98475.28;4364492;32;20105;-84
2023/01/31 06:06:21;;;;;;;5.05;1.70;;;;;;;2.65;69.49;98485.41;4364338;32;20147;-85
2023/01/31 06:08:47;;;;;;;6.12;1.10;;;;;;;2.90;68.43;98493.38;4363209;32;20115;-84
2023/01/31 06:11:13;;;;;;;4.15;1.30;;;;;;;2.99;67.94;98482.69;4364512;32;20117;-84
2023/01/31 06:13:41;;;;;;;6.15;1.37;;;;;;;2.90;67.83;98494.22;4364517;32;20389;-84
2023/01/31 06:16:06;;;;;;;8.20;1.37;;;;;;;2.89;67.69;98487.31;4364307;32;20103;-84
2023/01/31 06:18:32;;;;;;;11.27;1.37;;;;;;;2.88;67.21;98490.81;4364495;32;20345;-84
2023/01/31 06:20:57;;;;;;;4.22;1.10;;;;;;;2.88;66.61;98492.56;4363223;32;20480;-84
2023/01/31 06:23:23;;;;;;;4.85;1.05;;;;;;;3.00;66.26;98496.56;4363844;32;20420;-85
2023/01/31 06:25:50;;;;;;;5.60;1.10;;;;;;;2.98;65.83;98494.00;4375655;32;20104;-85
2023/01/31 06:28:15;;;;;;;5.28;1.20;;;;;;;2.91;65.57;98492.47;4364119;32;20086;-86
2023/01/31 06:30:41;;;;;;;4.68;1.25;;;;;;;3.27;64.63;98500.13;4364233;32;20387;-88
2023/01/31 06:33:07;;;;;;;4.07;0.90;;;;;;;3.12;64.55;98483.19;4363077;32;20087;-86
2023/01/31 06:35:33;;;;;;;6.35;1.40;;;;;;;3.30;64.11;98507.81;4363838;32;20095;-85
2023/01/31 06:37:58;;;;;;;4.37;1.00;;;;;;;3.38;64.14;98499.78;4363947;32;20150;-87
2023/01/31 06:40:24;;;;;;;5.43;1.20;;;;;;;3.19;63.85;98499.47;4363882;32;20118;-85
2023/01/31 06:42:49;;;;;;;10.07;1.27;;;;;;;3.08;64.57;98505.00;4362835;32;20107;-85
2023/01/31 06:45:15;;;;;;;7.05;1.17;;;;;;;3.19;63.90;98502.94;4363998;32;20099;-86
2023/01/31 06:47:40;;;;;;;7.57;1.12;;;;;;;3.27;63.66;98500.97;4363950;32;20111;-85
2023/01/31 06:50:06;;;;;;;5.85;0.95;;;;;;;2.89;64.40;98513.31;4363531;32;20444;-84
2023/01/31 06:52:31;;;;;;;6.62;1.00;;;;;;;3.20;63.80;98522.87;4360578;32;20113;-84
2023/01/31 06:54:57;;;;;;;5.72;1.00;;;;;;;3.39;62.89;98525.78;4361427;32;20103;-85
2023/01/31 06:57:22;;;;;;;7.68;1.65;;;;;;;3.08;63.31;98503.25;4363696;32;20428;-85
2023/01/31 06:59:48;;;;;;;7.03;1.30;;;;;;;3.15;63.11;98501.34;4363865;32;20117;-86
2023/01/31 07:02:13;;;;;;;3.92;0.90;;;;;;;3.26;62.02;98488.84;4362497;32;20125;-88
2023/01/31 07:04:38;;;;;;;4.50;1.25;;;;;;;3.18;62.25;98508.19;4363690;32;20086;-85
2023/01/31 07:07:04;;;;;;;5.95;1.40;;;;;;;3.11;62.34;98523.13;4363832;32;20118;-85
2023/01/31 07:09:29;;;;;;;3.83;1.00;;;;;;;3.45;61.58;98535.16;4363888;32;20106;-89
2023/01/31 07:11:55;;;;;;;3.83;1.10;;;;;;;3.13;61.81;98526.56;4363723;32;20113;-84
2023/01/31 07:14:20;;;;;;;7.22;1.08;;;;;;;3.29;61.50;98560.81;4349920;32;20132;-85
2023/01/31 07:16:45;;;;;;;4.62;1.00;;;;;;;3.41;61.06;98523.13;4362362;32;20098;-88
2023/01/31 07:19:11;;;;;;;4.18;1.58;;;;;;;3.18;61.26;98524.66;4363648;32;20083;-87
2023/01/31 07:21:36;;;;;;;5.90;0.98;;;;;;;3.44;61.41;98531.72;4363560;32;20138;-84
2023/01/31 07:24:03;;;;;;;11.65;1.48;;;;;;;3.43;61.31;98509.16;4363638;32;20372;-82
2023/01/31 07:26:28;;;;;;;8.35;1.20;;;;;;;3.50;61.27;98515.91;4361757;32;20436;-83
2023/01/31 07:28:54;;;;;;;6.35;1.30;;;;;;;3.56;61.29;98517.47;4362842;32;20122;-84
2023/01/31 07:31:19;;;;;;;5.07;1.12;;;;;;;3.63;60.87;98526.81;4386587;32;20432;-84
2023/01/31 07:33:45;;;;;;;3.65;0.80;;;;;;;3.42;61.69;98504.00;4361808;32;20099;-83
2023/01/31 07:36:15;;;;;;;6.85;1.20;;;;;;;3.15;61.96;98524.75;4363029;32;20103;-84
2023/01/31 07:38:41;;;;;;;7.78;1.20;;;;;;;3.53;61.06;98533.19;4365107;32;20105;-84
2023/01/31 07:41:08;;;;;;;6.07;1.05;;;;;;;3.53;60.43;98533.19;4365433;32;20060;-83
2023/01/31 07:43:33;;;;;;;3.67;0.90;;;;;;;3.56;60.18;98548.72;4364272;32;20103;-85
2023/01/31 07:45:58;;;;;;;4.68;1.23;;;;;;;3.41;60.54;98544.81;4365319;32;20142;-85
2023/01/31 07:48:24;;;;;;;5.60;1.15;;;;;;;3.50;60.30;98551.53;4386443;32;20415;-84
2023/01/31 07:50:58;;;;;;;4.93;1.00;;;;;;;3.51;60.41;98522.81;4357572;32;20112;-85
2023/01/31 07:53:23;;;;;;;4.62;0.98;;;;;;;3.65;59.25;98571.91;4356761;32;20111;-84
2023/01/31 07:55:49;;;;;;;6.75;1.37;;;;;;;3.82;58.46;98560.09;4362269;32;20110;-84
2023/01/31 07:58:15;;;;;;;6.78;1.25;;;;;;;3.32;59.86;98563.31;4376312;32;20153;-82
2023/01/31 08:03:33;;;;;;;4.53;1.08;;;;;;;3.65;59.39;98565.81;4363663;32;20121;-84
2023/01/31 08:06:10;;;;;;;4.82;1.00;;;;;;;3.56;60.12;98576.53;4359368;32;85053;-83
2023/01/31 08:08:36;;;;;;;4.37;0.88;;;;;;;3.96;59.09;98593.53;4376275;32;20129;-82
2023/01/31 08:11:03;;;;;;;5.37;1.08;;;;;;;3.61;59.67;98587.66;4365158;32;20441;-83
2023/01/31 08:13:32;;;;;;;4.28;1.45;;;;;;;3.76;59.57;98612.41;4351854;32;20111;-88
2023/01/31 08:15:58;;;;;;;7.85;1.45;;;;;;;3.85;59.34;98606.91;4376395;32;20125;-84
2023/01/31 08:18:24;;;;;;;5.85;1.40;;;;;;;3.89;59.55;98609.38;4365001;32;20440;-83
2023/01/31 08:20:49;;;;;;;7.45;1.15;;;;;;;3.81;59.59;98647.00;4365157;32;20428;-84
2023/01/31 08:23:15;;;;;;;8.80;1.40;;;;;;;4.05;59.30;98635.81;4376311;32;20134;-84
2023/01/31 08:25:40;;;;;;;6.57;1.23;;;;;;;4.01;59.53;98635.97;4365057;32;20083;-84
2023/01/31 08:28:06;;;;;;;6.32;1.20;;;;;;;4.19;58.97;98666.69;4365120;32;20087;-84
2023/01/31 08:30:31;;;;;;;6.00;1.10;;;;;;;4.32;58.23;98688.03;4365027;32;20105;-83
2023/01/31 08:32:57;;;;;;;8.10;1.30;;;;;;;4.16;58.78;98682.44;4364929;32;20495;-80
2023/01/31 08:35:24;;;;;;;6.57;1.05;;;;;;;4.59;57.60;98695.88;4376173;32;20107;-82
2023/01/31 08:37:50;;;;;;;4.07;1.20;;;;;;;4.48;57.38;98698.81;4363696;32;20165;-83
2023/01/31 08:40:15;;;;;;;6.75;1.27;;;;;;;4.52;57.44;98698.69;4376450;32;20381;-82
2023/01/31 08:42:41;;;;;;;3.40;1.10;;;;;;;4.50;58.16;98718.75;4365077;32;20118;-81
2023/01/31 08:45:06;;;;;;;7.70;1.85;;;;;;;4.41;57.49;98724.25;4365076;32;20428;-79
2023/01/31 08:47:33;;;;;;;7.60;1.40;;;;;;;4.37;58.53;98729.63;4364798;32;20087;-84
2023/01/31 08:49:58;;;;;;;7.57;1.70;;;;;;;5.08;56.75;98742.13;4365052;32;20156;-83
2023/01/31 08:52:23;;;;;;;7.75;1.52;;;;;;;4.42;58.01;98744.19;4365138;32;20099;-84
2023/01/31 08:54:49;;;;;;;5.75;1.40;;;;;;;5.02;56.93;98742.34;4365098;32;20372;-94
2023/01/31 08:57:14;;;;;;;6.90;1.35;;;;;;;4.89;57.13;98756.69;4363639;32;20091;-83
2023/01/31 08:59:42;;;;;;;4.68;1.27;;;;;;;4.91;56.67;98760.97;4364848;32;20490;-85
2023/01/31 09:02:11;;;;;;;9.30;1.62;;;;;;;5.19;56.30;98757.44;4364814;32;20213;-84
2023/01/31 09:04:36;;;;;;;8.90;1.98;;;;;;;5.05;56.41;98757.06;4364525;32;20427;-86
2023/01/31 09:07:02;;;;;;;7.30;1.67;;;;;;;5.23;56.16;98756.44;4376076;32;20082;-87
2023/01/31 09:09:27;;;;;;;9.05;2.15;;;;;;;5.02;56.33;98746.69;4364712;32;20142;-83
2023/01/31 09:11:52;;;;;;;7.40;1.50;;;;;;;5.15;56.32;98758.44;4364654;32;20094;-83
2023/01/31 09:14:18;;;;;;;6.10;1.60;;;;;;;5.31;56.16;98764.88;4364660;32;20445;-82
2023/01/31 09:16:45;;;;;;;6.35;1.40;;;;;;;5.08;56.53;98757.81;4364527;32;20146;-82
2023/01/31 09:19:11;;;;;;;6.80;1.33;;;;;;;4.75;57.62;98775.38;4363517;32;20082;-83
2023/01/31 09:21:36;;;;;;;6.87;1.60;;;;;;;4.91;56.76;98775.78;4364473;32;20207;-84
2023/01/31 09:24:02;;;;;;;5.40;1.45;;;;;;;4.34;58.74;98770.50;4364449;32;20444;-82
2023/01/31 09:26:28;;;;;;;8.75;1.55;;;;;;;4.41;57.66;98778.19;4364582;32;20091;-83
2023/01/31 09:28:56;;;;;;;8.50;1.98;;;;;;;4.43;57.90;98782.44;4364535;32;20145;-83
2023/01/31 09:31:21;;;;;;;7.50;2.58;;;;;;;5.02;57.06;98784.13;4375782;32;20111;-83
2023/01/31 09:33:47;;;;;;;4.18;1.37;;;;;;;5.17;56.51;98759.25;4364442;32;20363;-83
2023/01/31 09:36:15;;;;;;;8.43;1.70;;;;;;;5.41;56.15;98782.84;4363293;32;20091;-83
2023/01/31 09:38:41;;;;;;;6.28;1.58;;;;;;;5.33;56.19;98783.09;4363331;32;20117;-82
2023/01/31 09:41:34;;;;;;;6.22;1.30;;;;;;;5.36;56.60;98787.38;4364500;32;20103;-83
2023/01/31 09:44:09;;;;;;;7.50;1.50;;;;;;;5.33;57.12;98785.69;4363751;32;20098;-82
2023/01/31 09:46:43;;;;;;;5.37;1.30;;;;;;;5.84;55.36;98797.91;4363613;32;20117;-83
2023/01/31 09:49:17;;;;;;;6.75;1.60;;;;;;;5.69;56.20;98803.66;4364486;32;20082;-83
2023/01/31 09:51:43;;;;;;;7.00;1.40;;;;;;;5.39;56.51;98802.94;4363315;32;20129;-82
2023/01/31 09:54:18;;;;;;;9.90;1.80;;;;;;;5.58;55.43;98797.94;4364392;32;20091;-82
2023/01/31 09:57:18;;;;;;;7.62;1.50;;;;;;;5.77;54.91;98803.41;4363331;32;20431;-82
2023/01/31 09:59:58;;;;;;;8.98;1.60;;;;;;;5.91;54.89;98794.19;4362051;32;20470;-82
2023/01/31 10:02:27;;;;;;;9.80;1.75;;;;;;;5.77;55.59;98796.41;4363318;32;20214;-83
2023/01/31 10:05:10;;;;;;;8.13;1.60;;;;;;;5.36;55.92;98805.66;4364199;32;20763;-82
2023/01/31 10:07:41;;;;;;;9.70;1.80;;;;;;;5.51;55.77;98792.09;4364296;32;20174;-82
2023/01/31 10:10:32;;;;;;;9.48;1.37;;;;;;;5.75;55.32;98785.16;4363113;32;20083;-82
2023/01/31 10:13:00;;;;;;;8.02;1.37;;;;;;;5.88;55.13;98782.97;4363169;32;20186;-82
2023/01/31 10:15:37;;;;;;;5.72;1.70;;;;;;;5.98;54.29;98779.13;4364232;32;20226;-82
2023/01/31 10:18:25;;;;;;;6.37;1.48;;;;;;;5.97;53.79;98780.06;4364370;32;20165;-82
2023/01/31 10:20:59;;;;;;;7.93;1.37;;;;;;;6.07;54.09;98776.19;4363009;32;20113;-82
2023/01/31 10:23:33;;;;;;;8.45;1.30;;;;;;;6.32;53.27;98790.13;4363060;32;20130;-82
2023/01/31 10:26:15;;;;;;;4.43;1.50;;;;;;;5.79;52.87;98775.44;4363119;32;20620;-82
2023/01/31 10:28:49;;;;;;;6.15;1.55;;;;;;;5.41;53.91;98780.22;4375554;32;20140;-82
2023/01/31 10:31:25;;;;;;;8.23;1.60;;;;;;;5.78;52.72;98758.91;4364203;32;20432;-83
2023/01/31 10:34:33;;;;;;;5.60;1.20;;;;;;;6.20;51.81;98760.91;4364154;32;20091;-82
2023/01/31 10:37:13;;;;;;;6.50;1.45;;;;;;;6.34;50.86;98752.53;4352945;32;20095;-82
2023/01/31 10:39:49;;;;;;;6.10;1.30;;;;;;;6.48;49.63;98755.47;4362941;32;20095;-82
2023/01/31 10:42:19;;;;;;;8.10;1.60;;;;;;;6.37;49.70;98747.19;4375361;32;20146;-82
2023/01/31 10:44:53;;;;;;;7.43;1.30;;;;;;;6.27;50.56;98765.00;4364054;32;20173;-82
2023/01/31 10:48:00;;;;;;;5.12;1.20;;;;;;;6.52;49.66;98763.22;4362677;32;20463;-82
2023/01/31 10:50:33;;;;;;;4.95;1.10;;;;;;;6.64;48.72;98783.69;4317815;33;20138;-82
2023/01/31 10:53:10;;;;;;;2.33;0.85;;;;;;;6.15;48.84;98767.22;4305362;33;20076;-82
2023/01/31 10:55:42;;;;;;;7.22;1.15;;;;;;;5.31;50.93;98761.38;4317464;33;20151;-82
2023/01/31 10:58:14;;;;;;;12.32;1.62;;;;;;;5.65;50.20;98741.97;4317336;33;20641;-82
2023/01/31 11:00:39;;;;;;;5.60;1.30;;;;;;;5.77;49.62;98751.13;4305404;33;20142;-82
2023/01/31 11:03:04;;;;;;;3.97;1.12;;;;;;;6.20;49.47;98749.56;4317602;33;20128;-82
2023/01/31 11:05:30;;;;;;;9.25;1.30;;;;;;;6.30;49.68;98737.88;4317309;33;20139;-82
2023/01/31 11:08:00;;;;;;;4.93;1.00;;;;;;;6.00;49.87;98745.09;4317392;33;20209;-82
2023/01/31 11:10:28;;;;;;;6.60;1.58;;;;;;;5.85;49.95;98752.56;4306194;33;20127;-82
2023/01/31 11:13:03;;;;;;;3.80;1.02;;;;;;;5.54;50.87;98754.53;4319035;33;20159;-82
2023/01/31 11:15:34;;;;;;;8.00;1.33;;;;;;;5.43;51.30;98754.94;4307029;33;20103;-82
2023/01/31 11:18:00;;;;;;;5.03;1.20;;;;;;;5.78;49.90;98739.78;4306901;33;20150;-82
2023/01/31 11:20:35;;;;;;;4.97;1.12;;;;;;;5.20;50.11;98747.88;4328376;32;20091;-82
2023/01/31 11:23:01;;;;;;;5.75;0.93;;;;;;;5.37;50.45;98735.09;4364458;32;20100;-82
2023/01/31 11:25:27;;;;;;;5.05;1.10;;;;;;;5.18;50.16;98750.53;4364264;32;20136;-82
2023/01/31 11:27:59;;;;;;;5.35;1.17;;;;;;;5.12;51.12;98763.78;4364155;32;20099;-83
2023/01/31 11:30:33;;;;;;;5.07;0.90;;;;;;;5.81;50.01;98730.03;4364346;32;20624;-82
2023/01/31 11:32:59;;;;;;;3.50;1.10;;;;;;;5.96;50.01;98736.50;4351855;32;20458;-82
2023/01/31 11:35:30;;;;;;;5.22;1.08;;;;;;;6.49;49.02;98732.78;4365324;32;20099;-82
2023/01/31 11:38:09;;;;;;;3.50;0.90;;;;;;;6.38;48.98;98719.28;4365354;32;20083;-83
2023/01/31 11:40:35;;;;;;;;;;;;;;;6.13;49.23;98720.19;4365680;32;20122;-83
2023/01/31 11:43:04;;;;;;;4.50;1.23;;;;;;;5.95;49.98;98726.06;4376732;32;19970;-83
2023/01/31 11:45:31;;;;;;;7.57;1.10;;;;;;;6.09;49.47;98716.00;4365243;32;20111;-83
2023/01/31 11:47:58;;;;;;;3.55;1.00;;;;;;;5.55;49.81;98725.75;4365206;32;20087;-83
2023/01/31 11:50:58;;;;;;;5.60;0.90;;;;;;;6.29;48.71;98723.06;4365234;32;20363;-82
2023/01/31 11:53:26;;;;;;;4.28;0.90;;;;;;;6.33;47.87;98714.19;4363535;32;20076;-83
2023/01/31 11:55:54;;;;;;;4.43;1.20;;;;;;;6.16;47.80;98714.88;4376437;32;20099;-83
2023/01/31 11:58:23;;;;;;;5.15;0.93;;;;;;;6.17;47.76;98702.63;4376421;32;20463;-82
2023/01/31 12:01:06;;;;;;;4.40;0.90;;;;;;;6.48;47.59;98705.75;4364139;32;20083;-82
2023/01/31 12:03:32;;;;;;;5.82;0.93;;;;;;;6.37;47.43;98713.16;4376482;32;20105;-82